Time;durP1;ratioP1;P1;durP2;ratioP2;P2;SDS_P1;SDS_P2;PMS_P1;PMS_P2;Temp;Humidity;BMP_temperature;BMP_pressure;BME280_temperature;BME280_humidity;BME280_pressure;Samples;Min_cycle;Max_cycle;Signal;HPM_P1;HPM_P2
2022/07/27 00:00:57;;;;;;;4.47;0.60;;;15.70;99.90;;;;;;5004302;28;20069;-37
2022/07/27 00:03:23;;;;;;;1.98;0.40;;;15.70;99.90;;;;;;5009690;28;20114;-37
2022/07/27 00:05:49;;;;;;;2.85;0.60;;;15.80;99.90;;;;;;5009320;28;20423;-38
2022/07/27 00:08:15;;;;;;;2.40;0.40;;;15.80;99.90;;;;;;5009425;28;20084;-37
2022/07/27 00:10:41;;;;;;;5.28;0.50;;;15.80;99.90;;;;;;5011771;28;20088;-37
2022/07/27 00:13:07;;;;;;;3.22;0.70;;;15.80;99.90;;;;;;5012884;28;20053;-37
2022/07/27 00:15:33;;;;;;;1.15;0.40;;;15.80;99.90;;;;;;5004796;28;20038;-37
2022/07/27 00:17:59;;;;;;;3.72;0.70;;;15.70;99.90;;;;;;5000732;28;20536;-37
2022/07/27 00:20:27;;;;;;;2.58;0.77;;;15.70;99.90;;;;;;5012746;28;20124;-37
2022/07/27 00:22:54;;;;;;;2.97;0.50;;;15.70;99.90;;;;;;5012803;28;20045;-37
2022/07/27 00:25:20;;;;;;;3.08;0.52;;;15.70;99.90;;;;;;5003917;28;20035;-38
2022/07/27 00:27:45;;;;;;;2.95;0.40;;;15.70;99.90;;;;;;5012726;28;20038;-37
2022/07/27 00:30:11;;;;;;;1.90;0.40;;;15.60;99.90;;;;;;5011734;28;20133;-37
2022/07/27 00:32:39;;;;;;;1.88;0.47;;;15.60;99.90;;;;;;5005350;28;20041;-38
2022/07/27 00:35:06;;;;;;;1.65;0.43;;;15.50;99.90;;;;;;5013049;28;20048;-38
2022/07/27 00:37:31;;;;;;;2.58;0.80;;;15.50;99.90;;;;;;5012725;28;20495;-37
2022/07/27 00:39:57;;;;;;;4.15;0.60;;;15.40;99.90;;;;;;5004767;28;20039;-38
2022/07/27 00:42:26;;;;;;;1.85;0.40;;;15.40;99.90;;;;;;5012599;28;20034;-37
2022/07/27 00:44:54;;;;;;;1.77;0.50;;;15.30;99.90;;;;;;5012727;28;20455;-37
2022/07/27 00:47:21;;;;;;;1.67;0.50;;;15.30;99.90;;;;;;5012635;28;20061;-37
2022/07/27 00:49:46;;;;;;;3.88;0.60;;;15.30;99.90;;;;;;5012766;28;20108;-37
2022/07/27 00:52:13;;;;;;;2.78;0.47;;;15.20;99.90;;;;;;5011571;28;20037;-37
2022/07/27 00:54:40;;;;;;;3.88;0.40;;;15.10;99.90;;;;;;5012364;28;20080;-38
2022/07/27 00:57:09;;;;;;;4.30;0.40;;;15.10;99.90;;;;;;5010867;28;20051;-36
2022/07/27 00:59:35;;;;;;;1.90;0.40;;;15.00;99.90;;;;;;5009469;28;20100;-38
2022/07/27 01:02:01;;;;;;;3.75;0.70;;;15.00;99.90;;;;;;5012309;28;20435;-38
2022/07/27 01:04:26;;;;;;;2.95;0.45;;;15.00;99.90;;;;;;5012414;28;20394;-37
2022/07/27 01:06:52;;;;;;;1.83;0.40;;;15.00;99.90;;;;;;5012152;28;20046;-38
2022/07/27 01:12:02;;;;;;;3.97;0.50;;;14.90;99.90;;;;;;5012054;28;20046;-37
2022/07/27 01:14:28;;;;;;;1.50;0.40;;;14.90;99.90;;;;;;5001557;28;20432;-38
2022/07/27 01:16:54;;;;;;;3.05;0.50;;;14.80;99.90;;;;;;5008192;28;20470;-38
2022/07/27 01:19:19;;;;;;;1.88;0.50;;;14.80;99.90;;;;;;5007239;28;20480;-38
2022/07/27 01:21:45;;;;;;;3.10;0.40;;;14.70;99.90;;;;;;5004588;28;20422;-38
2022/07/27 01:24:11;;;;;;;2.70;0.60;;;14.70;99.90;;;;;;5008925;28;20187;-38
2022/07/27 01:26:37;;;;;;;4.15;0.55;;;14.70;99.90;;;;;;5004294;28;20049;-37
2022/07/27 01:29:03;;;;;;;2.05;0.52;;;14.70;99.90;;;;;;5007059;28;20042;-37
2022/07/27 01:31:29;;;;;;;2.53;0.50;;;14.60;99.90;;;;;;5011963;28;20045;-38
2022/07/27 01:33:56;;;;;;;2.97;0.50;;;14.60;99.90;;;;;;5011800;28;20041;-38
2022/07/27 01:36:22;;;;;;;3.45;0.43;;;14.60;99.90;;;;;;5011243;28;20033;-38
2022/07/27 01:38:48;;;;;;;3.05;0.63;;;14.60;99.90;;;;;;5011521;28;20453;-38
2022/07/27 01:41:13;;;;;;;1.08;0.40;;;14.50;99.90;;;;;;5011493;28;20046;-38
2022/07/27 01:43:39;;;;;;;2.33;0.50;;;14.50;99.90;;;;;;5009984;28;20475;-37
2022/07/27 01:46:05;;;;;;;1.95;0.63;;;14.40;99.90;;;;;;5009170;28;20108;-38
2022/07/27 01:48:31;;;;;;;5.07;0.60;;;14.40;99.90;;;;;;5011432;28;20046;-38
2022/07/27 01:50:57;;;;;;;2.58;0.57;;;14.40;99.90;;;;;;5005374;28;20038;-38
2022/07/27 01:53:23;;;;;;;3.13;0.60;;;14.30;99.90;;;;;;5004888;28;20078;-38
2022/07/27 01:55:49;;;;;;;2.35;0.50;;;14.30;99.90;;;;;;5009896;28;20060;-38
2022/07/27 01:58:16;;;;;;;2.53;0.98;;;14.30;99.90;;;;;;5011044;28;20125;-38
2022/07/27 02:00:42;;;;;;;2.88;1.08;;;14.30;99.90;;;;;;5005456;28;20046;-37
2022/07/27 02:03:09;;;;;;;1.83;0.50;;;14.20;99.90;;;;;;5011167;28;20053;-38
2022/07/27 02:05:36;;;;;;;4.25;0.60;;;14.20;99.90;;;;;;5011026;28;20052;-38
2022/07/27 02:08:04;;;;;;;2.17;0.70;;;14.20;99.90;;;;;;5006240;28;20043;-37
2022/07/27 02:10:30;;;;;;;1.92;0.50;;;14.20;99.90;;;;;;5006811;28;20042;-38
2022/07/27 02:12:56;;;;;;;2.67;0.40;;;14.20;99.90;;;;;;5010896;28;20407;-38
2022/07/27 02:15:24;;;;;;;1.88;0.50;;;14.10;99.90;;;;;;5010831;28;20049;-37
2022/07/27 02:17:50;;;;;;;4.53;0.90;;;14.10;99.90;;;;;;5002488;28;20081;-38
2022/07/27 02:20:20;;;;;;;2.28;0.60;;;14.00;99.90;;;;;;5010634;28;20486;-38
2022/07/27 02:22:46;;;;;;;1.80;0.50;;;14.00;99.90;;;;;;5010556;28;20045;-38
2022/07/27 02:25:14;;;;;;;3.38;0.63;;;14.00;99.90;;;;;;5010716;28;20041;-37
2022/07/27 02:27:41;;;;;;;3.53;0.82;;;14.00;99.90;;;;;;5010334;28;20042;-37
2022/07/27 02:30:08;;;;;;;4.40;0.90;;;14.00;99.90;;;;;;5010662;28;20110;-37
2022/07/27 02:32:34;;;;;;;1.52;0.50;;;14.00;99.90;;;;;;5006131;28;20180;-38
2022/07/27 02:35:00;;;;;;;2.83;0.60;;;13.90;99.90;;;;;;5008136;28;20467;-38
2022/07/27 02:37:26;;;;;;;3.63;0.50;;;13.90;99.90;;;;;;5010598;28;20096;-38
2022/07/27 02:39:54;;;;;;;3.10;0.77;;;13.90;99.90;;;;;;5009983;28;20058;-38
2022/07/27 02:42:20;;;;;;;3.00;0.55;;;13.90;99.90;;;;;;5010496;28;20034;-38
2022/07/27 02:44:45;;;;;;;2.13;0.50;;;13.90;99.90;;;;;;5010456;28;20329;-38
2022/07/27 02:47:11;;;;;;;2.03;0.38;;;13.80;99.90;;;;;;5009217;28;20038;-38
2022/07/27 02:49:37;;;;;;;2.22;0.55;;;13.80;99.90;;;;;;5008917;28;20045;-37
2022/07/27 02:52:04;;;;;;;1.55;0.80;;;13.80;99.90;;;;;;5007553;28;20040;-37
2022/07/27 02:54:31;;;;;;;1.55;0.95;;;13.80;99.90;;;;;;5010300;28;20049;-38
2022/07/27 02:56:58;;;;;;;1.20;0.55;;;13.80;99.90;;;;;;5010104;28;20095;-38
2022/07/27 02:59:25;;;;;;;3.15;0.70;;;13.90;99.90;;;;;;5009137;28;20045;-38
2022/07/27 03:01:50;;;;;;;3.67;0.68;;;13.80;99.90;;;;;;5010212;28;20042;-38
2022/07/27 03:04:17;;;;;;;2.58;0.57;;;13.80;99.90;;;;;;5005453;28;20125;-37
2022/07/27 03:06:43;;;;;;;2.05;0.50;;;13.80;99.90;;;;;;5025422;28;20448;-38
2022/07/27 03:09:09;;;;;;;3.15;0.80;;;13.80;99.90;;;;;;5008672;28;20065;-38
2022/07/27 03:11:35;;;;;;;3.05;0.70;;;13.80;99.90;;;;;;5009870;28;20180;-37
2022/07/27 03:14:01;;;;;;;1.55;0.40;;;13.80;99.90;;;;;;4999409;28;20038;-38
2022/07/27 03:16:26;;;;;;;2.85;0.68;;;13.80;99.90;;;;;;5009647;28;20046;-38
2022/07/27 03:18:52;;;;;;;1.75;0.30;;;13.80;99.90;;;;;;5009345;28;20062;-37
2022/07/27 03:21:18;;;;;;;1.65;0.50;;;13.70;99.90;;;;;;5009596;28;20034;-38
2022/07/27 03:23:43;;;;;;;1.50;0.77;;;13.70;99.90;;;;;;5001145;28;20065;-37
2022/07/27 03:26:09;;;;;;;2.35;0.40;;;13.60;99.90;;;;;;5009705;28;20148;-38
2022/07/27 03:28:35;;;;;;;2.10;0.40;;;13.60;99.90;;;;;;5010102;28;20088;-38
2022/07/27 03:31:01;;;;;;;1.58;0.50;;;13.60;99.90;;;;;;5007400;28;20046;-38
2022/07/27 03:33:26;;;;;;;3.42;0.70;;;13.60;99.90;;;;;;5009942;28;20034;-37
2022/07/27 03:35:52;;;;;;;2.15;0.50;;;13.50;99.90;;;;;;5009658;28;20069;-36
2022/07/27 03:38:18;;;;;;;1.38;0.40;;;13.50;99.90;;;;;;5008570;28;20112;-38
2022/07/27 03:40:44;;;;;;;1.15;0.40;;;13.50;99.90;;;;;;5002036;28;20049;-38
2022/07/27 03:43:10;;;;;;;1.33;0.30;;;13.50;99.90;;;;;;5005714;28;20426;-37
2022/07/27 03:45:35;;;;;;;1.42;0.43;;;13.50;99.90;;;;;;5013993;28;20033;-38
2022/07/27 03:48:01;;;;;;;3.25;0.50;;;13.40;99.90;;;;;;5013916;28;20037;-38
2022/07/27 03:50:27;;;;;;;1.75;0.47;;;13.30;99.90;;;;;;5011328;28;20041;-38
2022/07/27 03:52:53;;;;;;;2.85;0.60;;;13.20;99.90;;;;;;5008176;28;20045;-37
2022/07/27 03:55:19;;;;;;;2.38;0.60;;;13.20;99.90;;;;;;5013457;28;20507;-38
2022/07/27 03:57:45;;;;;;;1.77;0.50;;;13.10;99.90;;;;;;5013073;28;20115;-38
2022/07/27 04:00:12;;;;;;;1.20;0.50;;;13.10;99.90;;;;;;5025507;28;20046;-36
2022/07/27 04:02:39;;;;;;;3.03;1.00;;;13.10;99.90;;;;;;5013440;28;20088;-37
2022/07/27 04:05:05;;;;;;;1.35;0.50;;;13.10;99.90;;;;;;5013446;28;20065;-37
2022/07/27 04:07:31;;;;;;;2.97;0.70;;;13.10;99.90;;;;;;5012644;28;20037;-38
2022/07/27 04:09:57;;;;;;;1.98;0.60;;;13.20;99.90;;;;;;5013376;28;20482;-38
2022/07/27 04:12:23;;;;;;;0.88;0.43;;;13.20;99.90;;;;;;5012852;28;20042;-38
2022/07/27 04:14:49;;;;;;;3.38;0.60;;;13.20;99.90;;;;;;5012477;28;20399;-38
2022/07/27 04:17:14;;;;;;;1.60;0.60;;;13.20;99.90;;;;;;5012650;28;20085;-38
2022/07/27 04:19:40;;;;;;;3.35;0.70;;;13.10;99.90;;;;;;5013137;28;20410;-37
2022/07/27 04:22:06;;;;;;;1.02;0.57;;;13.10;99.90;;;;;;5012800;28;20049;-37
2022/07/27 04:24:31;;;;;;;2.15;0.60;;;13.10;99.90;;;;;;5013184;28;20037;-38
2022/07/27 04:26:57;;;;;;;2.70;0.60;;;13.20;99.90;;;;;;5012549;28;20100;-38
2022/07/27 04:29:22;;;;;;;3.22;0.60;;;13.20;99.90;;;;;;5013012;28;20052;-37
2022/07/27 04:31:48;;;;;;;2.55;0.60;;;13.20;99.90;;;;;;5010128;28;20364;-37
2022/07/27 04:34:14;;;;;;;2.25;0.40;;;13.20;99.90;;;;;;5012949;28;20458;-37
2022/07/27 04:36:40;;;;;;;1.52;0.50;;;13.20;99.90;;;;;;5012566;28;20129;-38
2022/07/27 04:39:05;;;;;;;2.05;0.52;;;13.10;99.90;;;;;;5009669;28;20350;-38
2022/07/27 04:41:31;;;;;;;4.43;0.90;;;13.10;99.90;;;;;;4994750;28;20046;-40
2022/07/27 04:43:57;;;;;;;3.90;0.50;;;13.10;99.90;;;;;;5012689;28;20041;-37
2022/07/27 04:46:23;;;;;;;4.57;1.00;;;13.10;99.90;;;;;;5012324;28;20042;-38
2022/07/27 04:48:49;;;;;;;1.00;0.45;;;13.10;99.90;;;;;;5009772;28;20434;-38
2022/07/27 04:51:15;;;;;;;2.72;0.43;;;13.20;99.90;;;;;;5012149;28;20088;-37
2022/07/27 04:53:41;;;;;;;2.78;1.25;;;13.20;99.90;;;;;;5012459;28;20046;-38
2022/07/27 04:56:07;;;;;;;1.85;0.60;;;13.30;99.90;;;;;;5011424;28;20049;-37
2022/07/27 04:58:33;;;;;;;4.43;0.50;;;13.30;99.90;;;;;;5012259;28;20052;-37
2022/07/27 05:00:59;;;;;;;2.90;1.40;;;13.30;99.90;;;;;;5012179;28;20124;-38
2022/07/27 05:03:24;;;;;;;2.85;0.52;;;13.30;99.90;;;;;;5012335;28;20067;-37
2022/07/27 05:05:50;;;;;;;4.07;0.80;;;13.30;99.90;;;;;;5010685;28;20113;-38
2022/07/27 05:08:16;;;;;;;6.63;0.70;;;13.10;99.90;;;;;;5012255;28;20034;-38
2022/07/27 05:10:42;;;;;;;4.28;0.82;;;13.10;99.90;;;;;;5011981;28;20049;-37
2022/07/27 05:13:07;;;;;;;2.08;0.52;;;13.10;99.90;;;;;;5006520;28;20038;-37
2022/07/27 05:15:33;;;;;;;2.65;0.60;;;13.20;99.90;;;;;;5005689;28;20042;-37
2022/07/27 05:17:58;;;;;;;2.83;0.40;;;13.20;99.90;;;;;;5011600;28;20137;-38
2022/07/27 05:20:24;;;;;;;4.10;0.60;;;13.30;99.90;;;;;;5011756;28;20530;-37
2022/07/27 05:22:50;;;;;;;2.55;0.40;;;13.30;99.90;;;;;;4996434;28;20039;-38
2022/07/27 05:25:15;;;;;;;1.48;0.50;;;13.40;99.90;;;;;;5006508;28;20072;-38
2022/07/27 05:27:41;;;;;;;1.70;0.50;;;13.40;99.90;;;;;;5011170;28;20466;-38
2022/07/27 05:30:08;;;;;;;3.05;0.38;;;13.40;99.90;;;;;;5011870;28;20112;-37
2022/07/27 05:32:34;;;;;;;2.65;0.70;;;13.50;99.90;;;;;;5011451;28;20407;-37
2022/07/27 05:34:59;;;;;;;2.20;0.40;;;13.60;99.90;;;;;;5011775;28;20041;-38
2022/07/27 05:37:25;;;;;;;3.30;0.50;;;13.70;99.90;;;;;;5011342;28;20060;-37
2022/07/27 05:39:51;;;;;;;2.75;0.30;;;13.70;99.90;;;;;;5004456;28;20048;-38
2022/07/27 05:42:16;;;;;;;3.28;0.50;;;13.80;99.90;;;;;;5010607;28;20112;-38
2022/07/27 05:44:42;;;;;;;1.15;0.47;;;13.90;99.90;;;;;;5000041;28;20042;-38
2022/07/27 05:47:08;;;;;;;5.47;0.60;;;13.90;99.90;;;;;;5011340;28;20038;-37
2022/07/27 05:49:34;;;;;;;4.65;0.80;;;13.90;99.90;;;;;;5011695;28;20518;-38
2022/07/27 05:52:00;;;;;;;2.25;0.52;;;14.00;99.90;;;;;;5003735;28;20521;-37
2022/07/27 05:54:25;;;;;;;4.13;0.50;;;14.10;99.90;;;;;;5011676;28;20034;-37
2022/07/27 05:56:51;;;;;;;2.95;0.73;;;14.10;99.90;;;;;;5010989;28;20117;-38
2022/07/27 05:59:17;;;;;;;3.30;0.40;;;14.10;99.90;;;;;;5008939;28;20481;-37
2022/07/27 06:01:43;;;;;;;2.25;0.60;;;14.20;99.90;;;;;;5011264;28;20042;-38
2022/07/27 06:04:08;;;;;;;2.63;0.60;;;14.30;99.90;;;;;;5011167;28;20084;-36
2022/07/27 06:09:18;;;;;;;3.70;0.52;;;14.40;99.90;;;;;;5011084;28;20042;-38
2022/07/27 06:11:44;;;;;;;2.33;0.60;;;14.50;99.90;;;;;;5011057;28;20045;-37
2022/07/27 06:14:09;;;;;;;5.07;0.80;;;14.50;99.90;;;;;;4992340;28;20054;-38
2022/07/27 06:16:35;;;;;;;2.00;0.50;;;14.60;99.90;;;;;;5010850;28;20063;-37
2022/07/27 06:19:01;;;;;;;5.47;0.80;;;14.60;99.90;;;;;;5010851;28;20471;-38
2022/07/27 06:21:27;;;;;;;2.33;0.55;;;14.70;99.90;;;;;;5010778;28;20420;-38
2022/07/27 06:23:55;;;;;;;4.45;0.60;;;14.70;99.90;;;;;;5011147;28;20046;-38
2022/07/27 06:26:21;;;;;;;4.28;0.57;;;14.80;99.90;;;;;;5010567;28;20133;-38
2022/07/27 06:28:47;;;;;;;3.72;0.63;;;14.80;99.90;;;;;;5011017;28;20057;-38
2022/07/27 06:31:13;;;;;;;5.55;0.65;;;14.90;99.90;;;;;;5005138;28;20477;-38
2022/07/27 06:33:40;;;;;;;4.03;0.70;;;14.90;99.90;;;;;;5006845;28;20100;-37
2022/07/27 06:36:07;;;;;;;3.45;0.63;;;15.00;99.90;;;;;;5009086;28;20061;-38
2022/07/27 06:38:33;;;;;;;2.95;0.40;;;15.00;99.90;;;;;;5009202;28;20116;-38
2022/07/27 06:41:00;;;;;;;3.03;0.60;;;15.10;99.90;;;;;;5010597;28;20049;-36
2022/07/27 06:43:29;;;;;;;5.80;0.75;;;15.20;99.90;;;;;;5010369;28;20038;-38
2022/07/27 06:45:57;;;;;;;1.60;0.50;;;15.20;99.90;;;;;;5005811;28;20043;-38
2022/07/27 06:48:22;;;;;;;2.33;0.45;;;15.20;99.90;;;;;;5008888;28;20116;-38
2022/07/27 06:50:50;;;;;;;4.57;0.80;;;15.20;99.90;;;;;;5010589;28;20080;-37
2022/07/27 06:53:16;;;;;;;3.65;0.50;;;15.20;99.90;;;;;;5010376;28;20045;-38
2022/07/27 06:55:41;;;;;;;4.15;0.95;;;15.30;99.90;;;;;;5003587;28;20041;-38
2022/07/27 06:58:07;;;;;;;2.65;0.52;;;15.30;99.90;;;;;;5008758;28;20490;-38
2022/07/27 07:00:33;;;;;;;5.55;0.90;;;15.40;99.90;;;;;;5010038;28;20345;-38
2022/07/27 07:03:04;;;;;;;5.43;0.65;;;15.40;99.90;;;;;;5005398;28;20084;-38
2022/07/27 07:05:31;;;;;;;5.43;0.88;;;15.50;99.90;;;;;;5010221;28;20038;-38
2022/07/27 07:07:57;;;;;;;6.38;0.70;;;15.50;99.90;;;;;;5008531;28;20111;-38
2022/07/27 07:10:25;;;;;;;8.10;1.20;;;15.70;99.90;;;;;;5010135;28;20406;-38
2022/07/27 07:12:54;;;;;;;6.85;1.08;;;15.80;99.90;;;;;;5006424;28;20038;-38
2022/07/27 07:15:26;;;;;;;3.42;0.60;;;15.90;99.90;;;;;;5001857;28;20173;-38
2022/07/27 07:17:53;;;;;;;4.80;0.80;;;16.10;99.90;;;;;;4996065;28;20069;-38
2022/07/27 07:20:18;;;;;;;4.10;0.57;;;16.20;99.90;;;;;;5009068;28;20049;-38
2022/07/27 07:22:44;;;;;;;3.78;0.57;;;16.30;99.90;;;;;;5009303;28;20112;-37
2022/07/27 07:25:10;;;;;;;3.53;0.68;;;16.40;99.90;;;;;;5010236;28;20045;-38
2022/07/27 07:27:36;;;;;;;3.38;0.77;;;16.50;99.90;;;;;;5009357;28;20349;-38
2022/07/27 07:30:02;;;;;;;5.85;0.65;;;16.50;99.90;;;;;;5009931;28;20100;-38
2022/07/27 07:32:28;;;;;;;3.08;1.05;;;16.60;98.90;;;;;;5009605;28;20064;-35
2022/07/27 07:34:54;;;;;;;3.58;0.70;;;16.60;98.40;;;;;;5009543;28;20057;-38
2022/07/27 07:37:19;;;;;;;9.20;0.70;;;16.70;98.40;;;;;;5006032;28;20436;-37
2022/07/27 07:39:46;;;;;;;5.47;0.73;;;16.80;98.10;;;;;;5006183;28;20049;-36
2022/07/27 07:42:11;;;;;;;5.70;0.77;;;16.90;97.90;;;;;;5009615;28;20038;-38
2022/07/27 07:44:37;;;;;;;1.60;0.63;;;16.90;97.80;;;;;;5009996;28;20033;-39
2022/07/27 07:47:04;;;;;;;5.43;0.70;;;16.90;97.10;;;;;;5009786;28;20030;-38
2022/07/27 07:49:29;;;;;;;3.08;0.70;;;17.00;96.30;;;;;;5009994;28;20077;-37
2022/07/27 07:51:55;;;;;;;2.97;0.88;;;17.10;96.10;;;;;;5007199;28;20084;-38
2022/07/27 07:54:21;;;;;;;2.80;0.50;;;17.10;95.90;;;;;;4996692;28;20057;-38
2022/07/27 07:56:47;;;;;;;1.80;0.50;;;17.20;95.70;;;;;;5008386;28;20377;-38
2022/07/27 07:59:13;;;;;;;4.07;0.50;;;17.20;95.50;;;;;;5009542;28;20080;-38
2022/07/27 08:01:38;;;;;;;4.70;0.82;;;17.20;95.50;;;;;;5009870;28;20057;-38
2022/07/27 08:04:04;;;;;;;2.38;0.40;;;17.20;95.40;;;;;;5009662;28;20578;-38
2022/07/27 08:06:29;;;;;;;4.38;0.60;;;17.10;94.90;;;;;;5006328;28;20403;-37
2022/07/27 08:08:55;;;;;;;2.78;0.50;;;17.00;94.80;;;;;;5009549;28;20455;-38
2022/07/27 08:11:21;;;;;;;3.92;0.50;;;17.10;95.00;;;;;;5003852;28;20100;-38
2022/07/27 08:13:47;;;;;;;6.00;0.57;;;17.20;94.80;;;;;;5004159;28;20146;-38
2022/07/27 08:16:13;;;;;;;3.33;0.85;;;17.40;94.00;;;;;;5009304;28;20460;-38
2022/07/27 08:18:39;;;;;;;1.60;0.50;;;17.60;93.60;;;;;;5009442;28;20069;-38
2022/07/27 08:21:04;;;;;;;3.00;0.55;;;17.80;92.70;;;;;;5007948;28;20076;-37
2022/07/27 08:23:30;;;;;;;2.75;0.50;;;17.90;92.50;;;;;;5009446;28;20042;-38
2022/07/27 08:25:57;;;;;;;3.17;0.75;;;18.10;92.70;;;;;;5008011;28;20037;-38
2022/07/27 08:28:22;;;;;;;5.05;0.50;;;18.20;92.10;;;;;;4998916;28;20069;-38
2022/07/27 08:30:48;;;;;;;1.95;0.45;;;18.40;91.30;;;;;;5011670;28;20490;-38
2022/07/27 08:33:14;;;;;;;2.70;0.40;;;18.30;90.30;;;;;;5013077;28;20523;-38
2022/07/27 08:35:40;;;;;;;2.72;0.50;;;18.40;90.20;;;;;;5012871;28;20519;-38
2022/07/27 08:38:08;;;;;;;3.08;0.52;;;18.40;89.40;;;;;;5012127;28;20430;-38
2022/07/27 08:40:34;;;;;;;2.60;0.60;;;18.60;88.80;;;;;;5000902;28;20042;-38
2022/07/27 08:43:01;;;;;;;2.60;0.47;;;18.70;88.00;;;;;;5009475;28;20049;-38
2022/07/27 08:45:27;;;;;;;2.58;0.77;;;18.80;87.10;;;;;;5012623;28;20113;-38
2022/07/27 08:47:53;;;;;;;4.28;0.90;;;18.90;85.50;;;;;;5012672;28;20136;-38
2022/07/27 08:50:23;;;;;;;3.33;0.60;;;19.00;84.80;;;;;;5012510;28;20466;-38
2022/07/27 08:53:10;;;;;;;7.57;0.88;;;19.10;85.80;;;;;;5012355;28;20042;-38
2022/07/27 08:55:41;;;;;;;4.15;0.50;;;19.30;84.30;;;;;;5012372;28;20517;-38
2022/07/27 08:58:08;;;;;;;4.38;0.60;;;19.30;82.60;;;;;;5010984;28;20042;-38
2022/07/27 09:00:37;;;;;;;3.25;0.50;;;19.50;83.10;;;;;;5004078;28;20057;-38
2022/07/27 09:03:03;;;;;;;3.97;0.50;;;19.60;82.60;;;;;;5012231;28;20034;-38
2022/07/27 09:05:29;;;;;;;2.38;0.80;;;19.70;81.60;;;;;;5012465;28;20149;-38
2022/07/27 09:08:08;;;;;;;4.57;0.70;;;19.80;79.60;;;;;;5012067;28;20061;-38
2022/07/27 09:10:37;;;;;;;3.38;0.57;;;19.90;77.30;;;;;;5012066;28;20046;-38
2022/07/27 09:13:24;;;;;;;5.07;0.88;;;19.90;78.30;;;;;;5007263;28;20052;-38
2022/07/27 09:15:53;;;;;;;5.13;0.50;;;19.60;75.50;;;;;;5000782;28;20048;-38
2022/07/27 09:18:21;;;;;;;4.18;0.55;;;19.30;80.10;;;;;;5012334;28;20057;-38
2022/07/27 09:21:08;;;;;;;3.50;0.60;;;19.20;80.70;;;;;;5011673;28;20042;-38
2022/07/27 09:23:33;;;;;;;4.38;0.50;;;19.30;78.80;;;;;;5012116;28;20079;-38
2022/07/27 09:26:16;;;;;;;2.28;0.40;;;19.60;78.60;;;;;;5011616;28;20415;-38
2022/07/27 09:28:42;;;;;;;;;;;19.90;75.20;;;;;;5012246;28;20053;-38
2022/07/27 09:31:10;;;;;;;1.52;0.32;;;20.10;73.80;;;;;;5007823;28;19921;-38
2022/07/27 09:33:50;;;;;;;5.70;0.60;;;20.20;75.90;;;;;;5008072;28;20133;-38
2022/07/27 09:36:17;;;;;;;4.13;0.40;;;20.20;69.80;;;;;;5011335;28;20061;-38
2022/07/27 09:39:09;;;;;;;2.72;0.40;;;20.20;72.70;;;;;;5011084;28;20117;-40
2022/07/27 09:41:41;;;;;;;5.20;0.50;;;20.50;69.60;;;;;;5011020;28;20578;-38
2022/07/27 09:44:07;;;;;;;2.42;0.50;;;20.60;64.00;;;;;;5011541;28;20042;-38
2022/07/27 09:46:41;;;;;;;3.17;0.57;;;20.70;66.10;;;;;;5011372;28;20200;-38
2022/07/27 09:49:26;;;;;;;3.13;0.65;;;20.80;66.10;;;;;;5002436;28;20042;-38
2022/07/27 09:51:52;;;;;;;3.78;0.63;;;20.80;67.90;;;;;;5003878;28;20049;-38
2022/07/27 09:54:18;;;;;;;19.52;1.58;;;20.60;69.10;;;;;;5011561;28;20112;-38
2022/07/27 09:56:44;;;;;;;2.80;0.70;;;20.30;69.50;;;;;;5011156;28;20111;-38
2022/07/27 09:59:17;;;;;;;1.80;0.40;;;20.10;72.00;;;;;;5011075;28;20050;-38
2022/07/27 10:01:43;;;;;;;2.97;0.50;;;19.90;72.20;;;;;;5005878;28;20081;-38
2022/07/27 10:04:09;;;;;;;3.45;0.50;;;19.80;75.00;;;;;;5002184;28;20084;-38
2022/07/27 10:06:35;;;;;;;1.90;0.40;;;19.70;75.50;;;;;;5010936;28;20119;-41
2022/07/27 10:09:01;;;;;;;2.05;0.35;;;19.80;75.30;;;;;;5011134;28;20034;-37
2022/07/27 10:11:27;;;;;;;3.13;0.68;;;20.10;74.40;;;;;;5010635;28;20034;-38
2022/07/27 10:13:54;;;;;;;4.30;0.80;;;20.50;73.10;;;;;;5011032;28;20048;-40
2022/07/27 10:16:28;;;;;;;4.45;0.50;;;20.70;71.10;;;;;;5010228;28;20463;-38
2022/07/27 10:19:17;;;;;;;3.00;0.40;;;20.60;71.90;;;;;;5009516;28;20073;-38
2022/07/27 10:21:45;;;;;;;2.90;0.47;;;20.50;73.60;;;;;;5002610;28;20068;-40
2022/07/27 10:24:27;;;;;;;2.78;0.40;;;20.30;75.90;;;;;;5011282;28;20117;-38
2022/07/27 10:26:54;;;;;;;3.50;0.70;;;20.20;77.00;;;;;;5009278;28;20050;-38
2022/07/27 10:29:21;;;;;;;2.33;0.50;;;20.00;78.50;;;;;;5007513;28;20042;-38
2022/07/27 10:31:53;;;;;;;1.45;0.40;;;20.00;79.00;;;;;;5005524;28;20041;-38
2022/07/27 10:34:37;;;;;;;3.42;0.50;;;20.00;79.90;;;;;;5011331;28;20045;-38
2022/07/27 10:37:23;;;;;;;1.50;0.50;;;20.10;78.80;;;;;;5001138;28;20068;-40
2022/07/27 10:42:43;;;;;;;3.67;0.50;;;20.10;79.10;;;;;;5010938;28;20038;-38
2022/07/27 10:45:12;;;;;;;2.28;0.60;;;20.20;79.80;;;;;;5008475;28;20455;-38
2022/07/27 10:47:43;;;;;;;5.57;0.75;;;20.20;79.40;;;;;;5001428;28;20045;-38
2022/07/27 10:50:15;;;;;;;1.50;0.40;;;20.30;78.70;;;;;;5009600;28;20038;-38
2022/07/27 10:52:41;;;;;;;2.53;0.50;;;20.40;78.10;;;;;;5003562;28;20612;-38
2022/07/27 10:55:07;;;;;;;2.92;0.45;;;20.50;78.50;;;;;;5010733;28;20273;-38
2022/07/27 10:57:36;;;;;;;2.50;0.60;;;20.70;78.10;;;;;;5010364;28;20038;-38
2022/07/27 11:00:08;;;;;;;3.25;0.50;;;20.90;76.50;;;;;;5010822;28;20044;-38
2022/07/27 11:02:41;;;;;;;3.87;0.50;;;21.10;75.30;;;;;;5010914;28;20050;-38
2022/07/27 11:05:10;;;;;;;3.45;0.40;;;21.30;72.80;;;;;;5010580;28;20403;-38
2022/07/27 11:07:35;;;;;;;3.38;0.45;;;21.30;70.60;;;;;;5008618;28;20368;-38
2022/07/27 11:10:02;;;;;;;2.53;0.50;;;21.40;68.60;;;;;;5001968;28;20044;-38
2022/07/27 11:12:29;;;;;;;1.75;0.40;;;21.40;68.70;;;;;;5010039;28;20092;-38
2022/07/27 11:14:56;;;;;;;1.83;0.40;;;21.60;67.80;;;;;;4999303;28;20419;-38
2022/07/27 11:17:25;;;;;;;4.30;0.65;;;21.80;66.50;;;;;;5009703;28;20139;-38
2022/07/27 11:19:58;;;;;;;1.05;0.35;;;22.00;64.50;;;;;;5010134;28;20042;-39
2022/07/27 11:22:31;;;;;;;3.92;0.40;;;22.20;60.80;;;;;;5009656;28;20116;-39
2022/07/27 11:24:56;;;;;;;;;;;22.40;59.90;;;;;;5002433;28;20050;-38
2022/07/27 11:27:22;;;;;;;3.47;0.70;;;22.60;55.20;;;;;;5008670;28;19921;-38
2022/07/27 11:29:48;;;;;;;3.58;0.50;;;22.60;58.70;;;;;;5004000;28;20508;-40
2022/07/27 11:32:18;;;;;;;0.98;0.40;;;22.60;56.50;;;;;;5009938;28;20096;-38
2022/07/27 11:34:45;;;;;;;3.03;0.40;;;22.80;54.60;;;;;;5010026;28;20107;-38
2022/07/27 11:37:13;;;;;;;1.60;0.45;;;22.80;53.60;;;;;;5009960;28;20526;-38
2022/07/27 11:39:39;;;;;;;4.10;0.52;;;22.90;52.70;;;;;;4996936;28;20034;-38
2022/07/27 11:42:04;;;;;;;3.40;0.50;;;23.00;52.70;;;;;;5006755;28;20520;-38
2022/07/27 11:44:30;;;;;;;2.40;0.60;;;23.10;51.90;;;;;;5010122;28;20041;-38
2022/07/27 11:46:57;;;;;;;2.90;0.50;;;23.10;52.10;;;;;;5009639;28;20074;-38
2022/07/27 11:49:30;;;;;;;2.35;0.90;;;23.10;52.00;;;;;;5009966;28;20032;-38
2022/07/27 11:52:02;;;;;;;4.45;0.50;;;23.20;50.00;;;;;;5007492;28;20069;-40
2022/07/27 11:54:33;;;;;;;1.70;0.30;;;23.10;49.70;;;;;;5005902;28;20041;-38
2022/07/27 11:57:00;;;;;;;4.10;0.50;;;22.80;49.60;;;;;;5006020;28;20034;-38
2022/07/27 11:59:31;;;;;;;4.70;0.63;;;22.60;49.70;;;;;;5007205;28;20045;-38
2022/07/27 12:02:00;;;;;;;2.83;0.50;;;22.70;50.00;;;;;;5000589;28;20146;-38
2022/07/27 12:04:27;;;;;;;2.35;0.30;;;23.00;48.70;;;;;;5010176;28;20124;-38
2022/07/27 12:07:01;;;;;;;2.03;0.40;;;23.40;48.10;;;;;;5013246;28;20049;-38
2022/07/27 12:09:28;;;;;;;2.40;0.50;;;23.60;47.30;;;;;;5011296;28;20188;-40
2022/07/27 12:12:00;;;;;;;3.03;0.55;;;23.80;46.60;;;;;;5011460;28;20255;-38
2022/07/27 12:14:35;;;;;;;4.30;0.45;;;23.90;46.70;;;;;;5006613;28;20042;-38
2022/07/27 12:17:28;;;;;;;3.97;0.40;;;23.80;47.90;;;;;;5012844;28;20107;-37
2022/07/27 12:19:54;;;;;;;3.35;0.40;;;23.70;48.50;;;;;;5006123;28;20161;-39
2022/07/27 12:22:32;;;;;;;5.30;0.47;;;23.50;49.90;;;;;;5012602;28;20120;-38
2022/07/27 12:25:00;;;;;;;1.77;0.50;;;23.50;50.50;;;;;;5003694;28;20039;-38
2022/07/27 12:27:27;;;;;;;5.13;0.52;;;23.50;50.20;;;;;;5010274;28;20411;-38
2022/07/27 12:30:14;;;;;;;2.75;0.40;;;23.50;50.60;;;;;;5009383;28;20041;-42
2022/07/27 12:32:42;;;;;;;4.00;0.50;;;23.50;48.90;;;;;;5008579;28;20034;-38
2022/07/27 12:35:16;;;;;;;2.78;0.45;;;23.40;48.60;;;;;;5011839;28;20053;-38
2022/07/27 12:37:42;;;;;;;2.60;0.40;;;23.30;47.50;;;;;;5009890;28;20120;-38
2022/07/27 12:40:16;;;;;;;2.90;0.30;;;23.10;46.90;;;;;;5003848;28;20133;-38
2022/07/27 12:42:42;;;;;;;3.10;0.50;;;23.10;46.80;;;;;;5012796;28;20178;-38
2022/07/27 12:45:17;;;;;;;4.22;0.60;;;23.10;47.30;;;;;;5010093;28;20044;-38
2022/07/27 12:47:44;;;;;;;3.38;0.43;;;23.00;47.00;;;;;;5004557;28;20045;-38
2022/07/27 12:50:16;;;;;;;1.52;0.40;;;23.00;47.60;;;;;;5000555;28;20077;-38
2022/07/27 12:52:50;;;;;;;1.77;0.30;;;23.10;47.10;;;;;;5011244;28;20511;-35
2022/07/27 12:55:17;;;;;;;2.53;0.40;;;23.10;46.70;;;;;;5007053;28;20045;-38
2022/07/27 12:57:44;;;;;;;3.00;0.40;;;23.10;46.90;;;;;;5004654;28;20386;-38